TimeCST,TemperatureF,Dew PointF,Humidity,Sea Level PressureIn,VisibilityMPH,Wind Direction,Wind SpeedMPH,Gust SpeedMPH,PrecipitationIn,Events,Conditions,WindDirDegrees,DateUTC
12:53 AM,30.0,23.0,75,29.97,10.0,NNW,3.5,-,N/A,,Clear,330,2013-02-17 06:53:00
1:53 AM,32.0,23.0,69,29.94,10.0,West,5.8,-,N/A,,Clear,260,2013-02-17 07:53:00
2:53 AM,30.9,21.0,67,29.94,10.0,West,3.5,-,N/A,,Clear,270,2013-02-17 08:53:00
3:53 AM,28.9,19.0,67,29.91,10.0,Calm,Calm,-,N/A,,Clear,0,2013-02-17 09:53:00
4:53 AM,30.0,18.0,61,29.89,10.0,SSW,3.5,-,N/A,,Clear,210,2013-02-17 10:53:00
5:53 AM,27.0,19.0,72,29.89,10.0,Calm,Calm,-,N/A,,Clear,0,2013-02-17 11:53:00
7:53 AM,28.0,19.0,69,29.89,10.0,Calm,Calm,-,N/A,,Clear,0,2013-02-17 13:53:00
8:53 AM,36.0,24.1,62,29.88,10.0,Calm,Calm,-,N/A,,Clear,0,2013-02-17 14:53:00
9:53 AM,48.9,23.0,36,29.86,10.0,NW,4.6,-,N/A,,Clear,310,2013-02-17 15:53:00
10:53 AM,59.0,19.9,22,29.81,10.0,NW,6.9,-,N/A,,Clear,310,2013-02-17 16:53:00
11:53 AM,64.9,19.0,17,29.76,10.0,Calm,Calm,-,N/A,,Clear,0,2013-02-17 17:53:00
12:53 PM,66.0,15.1,14,29.73,10.0,Calm,Calm,-,N/A,,Clear,0,2013-02-17 18:53:00
1:53 PM,66.9,19.9,17,29.66,10.0,SSE,10.4,17.3,N/A,,Clear,160,2013-02-17 19:53:00
2:53 PM,69.1,18.0,14,29.62,10.0,South,13.8,-,N/A,,Clear,180,2013-02-17 20:53:00
3:53 PM,70.0,17.1,13,29.57,10.0,SSW,17.3,-,N/A,,Clear,200,2013-02-17 21:53:00
4:53 PM,68.0,14.0,12,29.55,10.0,SSW,16.1,-,N/A,,Clear,200,2013-02-17 22:53:00
5:53 PM,64.9,14.0,14,29.55,10.0,SSW,12.7,-,N/A,,Clear,200,2013-02-17 23:53:00
6:53 PM,53.1,21.0,29,29.57,10.0,South,9.2,-,N/A,,Clear,190,2013-02-18 00:53:00
7:53 PM,50.0,21.9,33,29.56,10.0,South,6.9,-,N/A,,Clear,190,2013-02-18 01:53:00
8:53 PM,45.0,23.0,42,29.54,10.0,South,6.9,-,N/A,,Clear,190,2013-02-18 02:53:00
9:53 PM,50.0,15.1,25,29.48,10.0,SSW,16.1,-,N/A,,Clear,210,2013-02-18 03:53:00
11:53 PM,43.0,16.0,34,29.46,10.0,SW,19.6,-,N/A,,Clear,230,2013-02-18 05:53:00